Wetterdaten: Woche 19.07.10 - 25.07.10 (KW29)
Datum Zeit Temp. A. Feuchte A. Luftdruck Regen Wind Richtung Taupunkt Windchill Windben
19.07.2010 00:00 17,2 C 72 % 1024,0 hPa 0,0 l/m 3,5 km/h NW 12,1 C 17,2 C 10,5 km/h
19.07.2010 01:00 17,3 C 71 % 1023,8 hPa 0,0 l/m 3,0 km/h N-NW 12,0 C 17,3 C 9,7 km/h
19.07.2010 02:00 17,3 C 71 % 1023,7 hPa 0,3 l/m 3,3 km/h NW 12,0 C 17,3 C 10,9 km/h
19.07.2010 03:00 17,2 C 72 % 1023,3 hPa 0,0 l/m 3,4 km/h N-NW 12,1 C 17,2 C 9,3 km/h
19.07.2010 04:00 17,1 C 73 % 1023,1 hPa 0,0 l/m 3,7 km/h NW 12,2 C 17,1 C 10,1 km/h
19.07.2010 05:00 16,9 C 74 % 1023,2 hPa 0,0 l/m 3,2 km/h NW 12,3 C 16,9 C 10,5 km/h
19.07.2010 06:00 16,8 C 75 % 1023,1 hPa 0,0 l/m 3,4 km/h N-NW 12,3 C 16,8 C 9,7 km/h
19.07.2010 07:00 16,9 C 76 % 1023,2 hPa 0,0 l/m 3,4 km/h N-NW 12,7 C 16,9 C 9,3 km/h
19.07.2010 08:00 17,1 C 78 % 1023,1 hPa 0,0 l/m 3,6 km/h S-SO 13,2 C 17,1 C 11,3 km/h
19.07.2010 09:00 17,6 C 76 % 1023,2 hPa 0,0 l/m 3,1 km/h SW 13,4 C 17,6 C 9,3 km/h
19.07.2010 10:00 18,1 C 75 % 1023,1 hPa 0,0 l/m 4,4 km/h NW 13,7 C 18,1 C 12,1 km/h
19.07.2010 11:00 18,8 C 75 % 1022,8 hPa 0,0 l/m 5,1 km/h NW 14,1 C 18,8 C 12,1 km/h
19.07.2010 12:00 19,5 C 73 % 1022,7 hPa 0,0 l/m 5,3 km/h NW 14,6 C 19,4 C 12,1 km/h
19.07.2010 13:00 20,5 C 71 % 1022,3 hPa 0,0 l/m 4,1 km/h NW 15,1 C 20,5 C 11,7 km/h
19.07.2010 14:00 21,3 C 69 % 1021,8 hPa 0,0 l/m 4,6 km/h NW 15,3 C 21,3 C 10,9 km/h
19.07.2010 15:00 21,9 C 67 % 1021,2 hPa 0,0 l/m 4,3 km/h NW 15,5 C 21,9 C 11,7 km/h
19.07.2010 16:00 22,5 C 67 % 1020,8 hPa 0,0 l/m 3,9 km/h NW 15,9 C 22,5 C 10,9 km/h
19.07.2010 17:00 22,4 C 67 % 1020,5 hPa 0,0 l/m 4,1 km/h NW 16,0 C 22,4 C 10,5 km/h
19.07.2010 18:00 21,8 C 69 % 1020,2 hPa 0,0 l/m 3,4 km/h NW 15,8 C 21,8 C 9,3 km/h
19.07.2010 19:00 21,5 C 70 % 1020,0 hPa 0,0 l/m 2,3 km/h NW 15,8 C 21,5 C 6,8 km/h
19.07.2010 20:00 20,9 C 73 % 1020,1 hPa 0,0 l/m 1,0 km/h NW 15,8 C 20,9 C 4,0 km/h
19.07.2010 21:00 20,1 C 72 % 1020,8 hPa 0,0 l/m 0,6 km/h N 14,8 C 20,1 C 3,6 km/h
19.07.2010 22:00 19,5 C 72 % 1020,9 hPa 0,0 l/m 0,3 km/h N 14,3 C 19,5 C 3,2 km/h
19.07.2010 23:00 19,0 C 75 % 1020,8 hPa 0,0 l/m 0,6 km/h N-NO 14,3 C 19,0 C 4,4 km/h
20.07.2010 00:00 18,3 C 76 % 1020,5 hPa 0,0 l/m 0,1 km/h N 13,9 C 18,3 C 1,6 km/h
20.07.2010 01:00 17,5 C 79 % 1020,0 hPa 0,0 l/m 0,5 km/h N-NW 13,9 C 17,5 C 2,8 km/h
20.07.2010 02:00 16,8 C 81 % 1019,5 hPa 0,0 l/m 0,4 km/h N 13,6 C 16,8 C 2,0 km/h
20.07.2010 03:00 16,3 C 83 % 1019,2 hPa 0,0 l/m 0,1 km/h N 13,3 C 16,3 C 1,6 km/h
20.07.2010 04:00 15,9 C 83 % 1018,8 hPa 0,0 l/m 0,0 km/h N 13,1 C 15,9 C 1,6 km/h
20.07.2010 05:00 15,6 C 84 % 1018,7 hPa 0,0 l/m 0,0 km/h N 13,0 C 15,6 C 0,0 km/h
20.07.2010 06:00 15,7 C 86 % 1018,4 hPa 0,0 l/m 0,1 km/h N 13,2 C 15,7 C 2,0 km/h
20.07.2010 07:00 16,5 C 85 % 1018,4 hPa 0,0 l/m 1,0 km/h NW 14,0 C 16,5 C 4,8 km/h
20.07.2010 08:00 17,6 C 83 % 1018,6 hPa 0,0 l/m 0,5 km/h NW 14,6 C 17,6 C 4,0 km/h
20.07.2010 09:00 18,8 C 80 % 1018,3 hPa 0,0 l/m 0,9 km/h N-NW 15,1 C 18,8 C 4,8 km/h
20.07.2010 10:00 19,9 C 76 % 1018,0 hPa 0,0 l/m 0,7 km/h N 15,5 C 19,9 C 4,4 km/h
20.07.2010 11:00 22,4 C 70 % 1017,3 hPa 0,0 l/m 0,6 km/h N-NO 16,6 C 22,4 C 3,2 km/h
20.07.2010 12:00 25,5 C 61 % 1016,4 hPa 0,0 l/m 0,3 km/h N 17,4 C 25,5 C 2,8 km/h
20.07.2010 13:00 26,1 C 61 % 1015,6 hPa 0,0 l/m 0,8 km/h S 18,0 C 26,1 C 3,6 km/h
20.07.2010 14:00 26,9 C 58 % 1014,7 hPa 0,0 l/m 1,0 km/h O-NO 17,8 C 26,9 C 4,8 km/h
20.07.2010 15:00 27,0 C 59 % 1014,0 hPa 0,0 l/m 1,8 km/h O 18,1 C 27,0 C 4,8 km/h
20.07.2010 16:00 27,8 C 57 % 1013,4 hPa 0,0 l/m 1,3 km/h O 18,5 C 27,8 C 4,4 km/h
20.07.2010 17:00 28,4 C 55 % 1012,8 hPa 0,0 l/m 1,1 km/h SO 18,3 C 28,4 C 5,6 km/h
20.07.2010 18:00 27,6 C 56 % 1012,3 hPa 0,0 l/m 0,8 km/h N 18,0 C 27,6 C 4,4 km/h
20.07.2010 19:00 27,0 C 57 % 1012,2 hPa 0,0 l/m 0,3 km/h N 17,7 C 27,0 C 2,8 km/h
20.07.2010 20:00 26,2 C 62 % 1012,3 hPa 0,0 l/m 0,1 km/h N 18,3 C 26,2 C 1,2 km/h
20.07.2010 21:00 24,1 C 71 % 1012,6 hPa 0,0 l/m 0,0 km/h N 18,6 C 24,1 C 0,0 km/h
20.07.2010 22:00 22,1 C 77 % 1012,7 hPa 0,0 l/m 0,0 km/h N 17,8 C 22,1 C 0,0 km/h
20.07.2010 23:00 20,8 C 80 % 1012,1 hPa 0,0 l/m 0,0 km/h N 17,1 C 20,8 C 0,4 km/h
21.07.2010 00:00 20,1 C 82 % 1011,7 hPa 0,0 l/m 0,0 km/h N 16,8 C 20,1 C 0,0 km/h
21.07.2010 01:00 19,8 C 83 % 1011,5 hPa 0,0 l/m 0,1 km/h N 16,8 C 19,8 C 1,6 km/h
21.07.2010 02:00 19,9 C 82 % 1011,2 hPa 0,0 l/m 0,0 km/h N 16,7 C 19,9 C 0,8 km/h
21.07.2010 03:00 19,5 C 83 % 1010,8 hPa 0,0 l/m 0,0 km/h N 16,5 C 19,5 C 0,8 km/h
21.07.2010 04:00 19,0 C 85 % 1010,3 hPa 0,0 l/m 0,0 km/h N 16,3 C 19,0 C 0,4 km/h
21.07.2010 05:00 18,6 C 85 % 1010,4 hPa 0,0 l/m 0,0 km/h N 16,0 C 18,6 C 0,8 km/h
21.07.2010 06:00 18,9 C 86 % 1010,7 hPa 0,0 l/m 0,0 km/h N 16,4 C 18,9 C 0,4 km/h
21.07.2010 07:00 19,9 C 87 % 1010,8 hPa 0,0 l/m 0,0 km/h N 17,6 C 19,9 C 0,8 km/h
21.07.2010 08:00 21,9 C 85 % 1010,8 hPa 0,0 l/m 0,2 km/h N 19,2 C 21,9 C 2,0 km/h
21.07.2010 09:00 23,8 C 77 % 1010,8 hPa 0,0 l/m 1,0 km/h SW 19,4 C 23,8 C 6,8 km/h
21.07.2010 10:00 26,0 C 66 % 1010,7 hPa 0,0 l/m 1,4 km/h S-SO 19,0 C 26,0 C 7,7 km/h
21.07.2010 11:00 28,9 C 54 % 1010,5 hPa 0,0 l/m 2,0 km/h S 18,7 C 28,9 C 8,9 km/h
21.07.2010 13:00 32,7 C 48 % 1009,8 hPa 0,0 l/m 0,0 km/h N 20,2 C 32,7 C 0,8 km/h
21.07.2010 14:00 33,4 C 44 % 1009,6 hPa 0,0 l/m 1,0 km/h S-SO 19,4 C 33,4 C 1,6 km/h
21.07.2010 15:00 32,1 C 47 % 1009,4 hPa 0,0 l/m 0,4 km/h N 19,3 C 32,1 C 2,7 km/h
21.07.2010 16:00 33,3 C 45 % 1009,0 hPa 0,0 l/m 1,0 km/h S 19,8 C 33,3 C 5,2 km/h
21.07.2010 17:00 31,9 C 48 % 1008,8 hPa 0,0 l/m 1,3 km/h SO 19,5 C 31,9 C 6,4 km/h
21.07.2010 18:00 31,7 C 47 % 1008,8 hPa 0,0 l/m 0,6 km/h SW 19,1 C 31,7 C 6,0 km/h
21.07.2010 19:00 30,8 C 47 % 1008,8 hPa 0,0 l/m 0,8 km/h N 18,2 C 30,8 C 6,0 km/h
21.07.2010 20:00 29,6 C 52 % 1009,0 hPa 0,0 l/m 0,0 km/h N 18,8 C 29,6 C 1,2 km/h
21.07.2010 21:00 27,0 C 63 % 1009,6 hPa 0,0 l/m 0,0 km/h N 19,3 C 27,0 C 0,0 km/h
21.07.2010 22:00 24,5 C 71 % 1009,8 hPa 0,0 l/m 0,0 km/h N 18,9 C 24,5 C 0,0 km/h
21.07.2010 23:00 23,0 C 76 % 1009,8 hPa 0,0 l/m 0,0 km/h N 18,4 C 23,0 C 0,0 km/h
22.07.2010 00:00 21,9 C 80 % 1010,0 hPa 0,0 l/m 0,1 km/h N 18,3 C 21,9 C 1,2 km/h
22.07.2010 01:00 21,3 C 82 % 1010,0 hPa 0,0 l/m 0,0 km/h N 18,0 C 21,3 C 0,8 km/h
22.07.2010 02:00 20,9 C 82 % 1009,8 hPa 0,0 l/m 0,0 km/h N 17,7 C 20,9 C 2,4 km/h
22.07.2010 03:00 20,5 C 83 % 1009,7 hPa 0,0 l/m 0,1 km/h N 17,5 C 20,5 C 1,2 km/h
22.07.2010 04:00 20,0 C 84 % 1009,9 hPa 0,0 l/m 0,0 km/h N 17,2 C 20,0 C 1,6 km/h
22.07.2010 05:00 19,5 C 85 % 1010,3 hPa 0,0 l/m 0,0 km/h N 16,9 C 19,5 C 1,2 km/h
22.07.2010 06:00 19,3 C 86 % 1010,7 hPa 0,0 l/m 0,0 km/h N 16,9 C 19,3 C 1,2 km/h
22.07.2010 07:00 20,3 C 88 % 1011,2 hPa 0,0 l/m 0,0 km/h N 18,1 C 20,3 C 1,2 km/h
22.07.2010 08:00 21,7 C 87 % 1011,5 hPa 0,0 l/m 0,0 km/h N 19,3 C 21,7 C 0,8 km/h
22.07.2010 09:00 23,6 C 82 % 1011,9 hPa 0,0 l/m 0,1 km/h N 20,3 C 23,6 C 1,2 km/h
22.07.2010 10:00 25,9 C 72 % 1012,0 hPa 0,0 l/m 0,6 km/h N 20,5 C 25,9 C 3,2 km/h
22.07.2010 11:00 28,4 C 64 % 1011,8 hPa 0,0 l/m 0,8 km/h N-NO 20,8 C 28,4 C 4,0 km/h
22.07.2010 12:00 31,2 C 56 % 1011,5 hPa 0,0 l/m 0,3 km/h N 21,2 C 31,2 C 2,4 km/h
22.07.2010 13:00 32,0 C 54 % 1011,2 hPa 0,0 l/m 0,7 km/h O-NO 21,4 C 32,0 C 4,4 km/h
22.07.2010 14:00 32,5 C 52 % 1010,7 hPa 0,0 l/m 1,0 km/h O-SO 21,1 C 32,5 C 4,8 km/h
22.07.2010 15:00 33,0 C 52 % 1010,3 hPa 0,0 l/m 1,3 km/h S-SW 21,6 C 33,0 C 6,8 km/h
22.07.2010 16:00 33,7 C 47 % 1010,0 hPa 0,0 l/m 1,1 km/h S 20,7 C 33,7 C 4,4 km/h
22.07.2010 17:00 33,9 C 47 % 1009,5 hPa 0,0 l/m 0,8 km/h S-SW 20,8 C 33,9 C 4,0 km/h
22.07.2010 18:00 32,4 C 51 % 1009,0 hPa 0,0 l/m 0,5 km/h N 20,9 C 32,4 C 3,2 km/h
22.07.2010 19:00 31,0 C 55 % 1009,1 hPa 0,0 l/m 0,0 km/h N 20,9 C 31,0 C 0,8 km/h
22.07.2010 20:00 29,4 C 63 % 1009,1 hPa 0,0 l/m 0,0 km/h N 21,5 C 29,4 C 0,0 km/h
22.07.2010 21:00 27,0 C 71 % 1009,1 hPa 0,0 l/m 0,0 km/h N 21,3 C 27,0 C 0,0 km/h
22.07.2010 22:00 25,4 C 77 % 1009,4 hPa 0,0 l/m 0,0 km/h N 21,0 C 25,4 C 0,0 km/h
22.07.2010 23:00 24,4 C 80 % 1009,7 hPa 0,0 l/m 0,0 km/h N 20,7 C 24,4 C 0,0 km/h
23.07.2010 00:00 23,7 C 82 % 1009,8 hPa 0,0 l/m 0,0 km/h N 20,3 C 23,7 C 1,2 km/h
23.07.2010 01:00 24,0 C 78 % 1009,4 hPa 0,0 l/m 0,1 km/h N 19,8 C 24,0 C 2,0 km/h
23.07.2010 02:00 24,3 C 74 % 1009,6 hPa 0,0 l/m 0,2 km/h N 19,3 C 24,3 C 2,0 km/h
23.07.2010 03:00 24,0 C 73 % 1010,2 hPa 0,0 l/m 0,7 km/h N 18,8 C 24,0 C 5,6 km/h
23.07.2010 04:00 24,2 C 70 % 1010,7 hPa 0,0 l/m 2,2 km/h S-SW 18,3 C 24,2 C 14,5 km/h
23.07.2010 05:00 23,3 C 71 % 1011,2 hPa 0,0 l/m 3,0 km/h S-SO 17,8 C 23,3 C 15,7 km/h
23.07.2010 06:00 22,7 C 74 % 1011,4 hPa 0,0 l/m 4,1 km/h S 17,7 C 22,7 C 16,5 km/h
23.07.2010 07:00 22,9 C 74 % 1012,1 hPa 0,0 l/m 3,0 km/h S-SO 18,0 C 22,9 C 17,7 km/h
23.07.2010 08:00 23,4 C 73 % 1012,5 hPa 0,0 l/m 2,5 km/h O-NO 18,2 C 23,4 C 12,5 km/h
23.07.2010 09:00 24,0 C 71 % 1012,9 hPa 0,0 l/m 3,5 km/h NO 18,4 C 24,0 C 13,3 km/h
23.07.2010 10:00 25,1 C 67 % 1013,0 hPa 0,0 l/m 4,8 km/h N-NW 18,5 C 25,2 C 19,3 km/h
23.07.2010 11:00 26,9 C 61 % 1013,1 hPa 0,0 l/m 5,9 km/h N-NO 18,7 C 26,9 C 19,3 km/h
23.07.2010 13:00 28,5 C 57 % 1012,2 hPa 0,0 l/m 4,4 km/h O-NO 19,2 C 28,5 C 15,3 km/h
23.07.2010 14:00 28,9 C 58 % 1011,7 hPa 0,0 l/m 5,2 km/h W 19,6 C 28,9 C 16,1 km/h
23.07.2010 15:00 29,5 C 55 % 1010,8 hPa 0,0 l/m 3,2 km/h NW 19,5 C 29,5 C 8,9 km/h
23.07.2010 16:00 29,5 C 55 % 1009,8 hPa 0,0 l/m 2,5 km/h NW 19,4 C 29,5 C 8,0 km/h
23.07.2010 17:00 28,1 C 60 % 1009,0 hPa 0,0 l/m 0,8 km/h N 19,6 C 28,1 C 4,4 km/h
23.07.2010 18:00 27,9 C 61 % 1008,2 hPa 0,0 l/m 0,1 km/h N 19,5 C 27,9 C 2,8 km/h
23.07.2010 19:00 27,0 C 64 % 1007,5 hPa 0,0 l/m 0,1 km/h N 19,7 C 27,0 C 1,6 km/h
23.07.2010 20:00 25,9 C 69 % 1007,2 hPa 0,0 l/m 0,0 km/h N 19,7 C 25,9 C 0,4 km/h
23.07.2010 21:00 24,9 C 72 % 1006,8 hPa 0,0 l/m 0,3 km/h NW 19,6 C 24,9 C 3,2 km/h
23.07.2010 22:00 23,0 C 76 % 1007,6 hPa 9,4 l/m 5,2 km/h SW 18,5 C 23,0 C 24,1 km/h
23.07.2010 23:00 20,3 C 84 % 1007,4 hPa 1,0 l/m 7,6 km/h S 17,5 C 19,8 C 26,9 km/h
24.07.2010 00:00 20,0 C 84 % 1007,8 hPa 0,0 l/m 7,7 km/h S 17,1 C 19,5 C 29,8 km/h
24.07.2010 01:00 19,9 C 80 % 1008,2 hPa 0,0 l/m 6,9 km/h N-NO 16,3 C 19,6 C 30,1 km/h
24.07.2010 02:00 19,5 C 77 % 1007,8 hPa 0,0 l/m 8,5 km/h NW 15,3 C 18,6 C 29,0 km/h
24.07.2010 03:00 18,5 C 73 % 1008,2 hPa 0,0 l/m 9,9 km/h N-NO 13,6 C 17,1 C 31,4 km/h
24.07.2010 04:00 18,5 C 72 % 1008,3 hPa 0,0 l/m 7,9 km/h W-SW 13,3 C 17,8 C 28,6 km/h
24.07.2010 05:00 18,6 C 70 % 1008,1 hPa 0,0 l/m 9,7 km/h W-SW 12,9 C 17,2 C 37,0 km/h
24.07.2010 06:00 18,5 C 69 % 1007,9 hPa 0,0 l/m 10,7 km/h S-SO 12,7 C 16,8 C 35,0 km/h
24.07.2010 07:00 18,3 C 69 % 1008,3 hPa 0,0 l/m 13,6 km/h SO 12,5 C 15,6 C 37,8 km/h
24.07.2010 08:00 18,5 C 68 % 1008,3 hPa 0,0 l/m 14,7 km/h W-SW 12,4 C 15,5 C 38,3 km/h
24.07.2010 09:00 18,8 C 66 % 1008,7 hPa 0,0 l/m 11,1 km/h SW 12,3 C 17,0 C 37,4 km/h
24.07.2010 10:00 19,6 C 65 % 1009,0 hPa 0,0 l/m 11,2 km/h N-NO 12,7 C 17,8 C 35,4 km/h
24.07.2010 11:00 19,9 C 65 % 1009,4 hPa 0,0 l/m 12,7 km/h N 13,1 C 17,8 C 35,8 km/h
24.07.2010 12:00 19,0 C 70 % 1010,7 hPa 0,0 l/m 9,4 km/h N-NO 13,4 C 17,7 C 28,2 km/h
24.07.2010 13:00 18,8 C 72 % 1010,9 hPa 0,0 l/m 7,0 km/h N-NO 13,5 C 18,5 C 27,3 km/h
24.07.2010 14:00 18,1 C 74 % 1011,3 hPa 0,0 l/m 5,7 km/h N-NW 13,4 C 18,1 C 20,5 km/h
24.07.2010 15:00 18,1 C 74 % 1011,0 hPa 0,0 l/m 6,3 km/h S-SW 13,4 C 18,0 C 22,9 km/h
24.07.2010 16:00 18,5 C 72 % 1010,9 hPa 0,0 l/m 7,0 km/h NW 13,4 C 18,2 C 21,7 km/h
24.07.2010 17:00 17,5 C 77 % 1011,3 hPa 0,0 l/m 5,3 km/h NW 13,3 C 17,5 C 17,7 km/h
24.07.2010 18:00 17,1 C 80 % 1011,2 hPa 0,0 l/m 5,5 km/h W-NW 13,6 C 17,1 C 20,1 km/h
24.07.2010 19:00 16,8 C 81 % 1011,5 hPa 0,3 l/m 7,1 km/h NW 13,5 C 16,3 C 20,5 km/h
24.07.2010 20:00 16,6 C 81 % 1012,0 hPa 0,0 l/m 7,4 km/h NW 13,3 C 16,0 C 19,7 km/h
24.07.2010 21:00 16,2 C 83 % 1012,5 hPa 1,0 l/m 5,8 km/h NW 13,3 C 16,2 C 17,7 km/h
24.07.2010 22:00 15,6 C 86 % 1012,4 hPa 0,5 l/m 5,6 km/h NW 13,2 C 15,6 C 18,5 km/h
24.07.2010 23:00 15,7 C 86 % 1012,5 hPa 0,3 l/m 5,1 km/h S-SW 13,4 C 15,7 C 16,1 km/h
25.07.2010 00:00 15,7 C 85 % 1012,3 hPa 0,3 l/m 5,1 km/h NW 13,3 C 15,7 C 17,3 km/h
25.07.2010 01:00 15,8 C 85 % 1012,1 hPa 0,3 l/m 5,7 km/h NW 13,2 C 15,8 C 18,5 km/h
25.07.2010 02:00 15,9 C 83 % 1012,0 hPa 0,0 l/m 6,2 km/h N-NW 12,9 C 15,8 C 18,9 km/h
25.07.2010 03:00 15,7 C 82 % 1011,9 hPa 0,0 l/m 6,6 km/h NW 12,7 C 15,6 C 16,9 km/h
25.07.2010 04:00 15,6 C 81 % 1012,1 hPa 0,0 l/m 5,5 km/h N-NW 12,4 C 15,6 C 16,9 km/h
25.07.2010 05:00 15,4 C 82 % 1012,2 hPa 0,0 l/m 5,0 km/h NW 12,2 C 15,4 C 13,7 km/h
25.07.2010 06:00 15,0 C 77 % 1012,3 hPa 0,0 l/m 5,2 km/h NW 11,1 C 14,9 C 14,9 km/h
25.07.2010 07:00 14,9 C 73 % 1012,2 hPa 0,0 l/m 7,4 km/h W-NW 10,1 C 14,3 C 20,5 km/h
25.07.2010 08:00 15,2 C 62 % 1012,5 hPa 0,0 l/m 8,6 km/h N-NW 8,0 C 14,0 C 18,9 km/h
25.07.2010 09:00 15,6 C 60 % 1012,2 hPa 0,0 l/m 8,4 km/h NW 8,0 C 14,6 C 23,3 km/h
25.07.2010 10:00 16,1 C 62 % 1012,0 hPa 0,0 l/m 8,4 km/h N-NW 8,7 C 15,0 C 26,6 km/h
25.07.2010 11:00 16,7 C 58 % 1011,9 hPa 0,0 l/m 8,5 km/h NW 8,5 C 15,7 C 23,7 km/h
25.07.2010 12:00 17,2 C 58 % 1011,7 hPa 0,0 l/m 7,2 km/h NW 8,9 C 16,8 C 19,7 km/h
25.07.2010 13:00 17,3 C 56 % 1011,6 hPa 0,0 l/m 5,3 km/h N-NW 8,5 C 17,3 C 14,1 km/h
25.07.2010 14:00 17,1 C 56 % 1011,9 hPa 0,0 l/m 5,3 km/h NW 8,2 C 17,1 C 14,9 km/h
25.07.2010 15:00 17,0 C 58 % 1012,0 hPa 0,0 l/m 6,2 km/h NW 8,7 C 17,0 C 14,5 km/h
25.07.2010 16:00 16,7 C 62 % 1012,0 hPa 0,0 l/m 4,1 km/h N-NW 9,4 C 16,7 C 12,1 km/h
25.07.2010 17:00 16,4 C 64 % 1012,1 hPa 0,0 l/m 5,2 km/h NW 9,5 C 16,4 C 14,5 km/h
25.07.2010 18:00 16,0 C 68 % 1012,3 hPa 0,0 l/m 3,5 km/h N-NW 10,1 C 16,0 C 10,1 km/h
25.07.2010 19:00 15,4 C 72 % 1012,4 hPa 0,0 l/m 3,4 km/h SW 10,3 C 15,4 C 16,9 km/h
25.07.2010 20:00 15,3 C 71 % 1012,3 hPa 0,0 l/m 2,6 km/h S 10,0 C 15,3 C 14,9 km/h
25.07.2010 21:00 15,5 C 70 % 1012,6 hPa 0,0 l/m 2,4 km/h NW 10,0 C 15,5 C 7,2 km/h
25.07.2010 22:00 15,6 C 71 % 1012,6 hPa 0,0 l/m 3,0 km/h NW 10,2 C 15,6 C 8,4 km/h
25.07.2010 23:00 15,6 C 72 % 1012,7 hPa 0,0 l/m 3,8 km/h NW 10,6 C 15,6 C 9,3 km/h
Min-Datum _ 25.07.10 21.07.10 23.07.10 - 20.07.10 - 25.07.10 25.07.10 20.07.10
_ Min-Zeit 06:30 14:38 21:15 - 00:30 - 08:45 08:00 04:45
Minimum _ 14,9 C 43 % 1006,5 hPa - 0,0 km/h - 7,7 C 13,2 C 0,0 km/h
Max-Datum _ 22.07.10 22.07.10 19.07.10 23.07.10 24.07.10 - 22.07.10 22.07.10 24.07.10
_ Max-Zeit 16:00 07:30 00:00 22:30 08:00 - 15:45 16:00 09:15
Maximum _ 34,2 C 88 % 1024,2 hPa 9,4 l/m 15,6 km/h
W-SW
- 22,2 C 34,1 C 45,1 km/h
W-SW
Durchschnitt _ 21,7 C 70 % 1013,0 hPa #13,3 l/m 3,0 km/h NW 15,8 C 21,5 C 10,2 km/h